createdAt,value
2018-12-25T00:00:45.866Z,90.10
2018-12-25T00:03:15.506Z,90.00
2018-12-25T00:05:45.125Z,90.00
2018-12-25T00:08:15.039Z,90.00
2018-12-25T00:10:44.750Z,89.90
2018-12-25T00:13:14.450Z,89.80
2018-12-25T00:15:44.056Z,89.70
2018-12-25T00:18:14.072Z,90.00
2018-12-25T00:20:43.674Z,90.00
2018-12-25T00:23:13.553Z,90.00
2018-12-25T00:25:43.499Z,89.30
2018-12-25T00:28:13.112Z,89.30
2018-12-25T00:30:42.796Z,89.30
2018-12-25T00:33:12.417Z,89.00
2018-12-25T00:35:42.353Z,88.90
2018-12-25T00:38:11.981Z,88.90
2018-12-25T00:40:41.873Z,88.60
2018-12-25T00:43:11.488Z,88.40
2018-12-25T00:45:41.376Z,88.40
2018-12-25T00:48:11.324Z,88.20
2018-12-25T00:50:40.929Z,87.90
2018-12-25T00:53:10.548Z,87.80
2018-12-25T00:55:40.396Z,87.70
2018-12-25T00:58:10.026Z,87.80
2018-12-25T01:00:39.640Z,87.80
2018-12-25T01:03:09.502Z,87.50
2018-12-25T01:05:39.469Z,87.90
2018-12-25T01:08:09.115Z,88.00
2018-12-25T01:10:38.720Z,87.70
2018-12-25T01:13:08.337Z,87.90
2018-12-25T01:15:37.976Z,87.40
2018-12-25T01:18:07.918Z,87.70
2018-12-25T01:20:37.530Z,87.80
2018-12-25T01:23:07.473Z,87.50
2018-12-25T01:25:37.085Z,87.90
2018-12-25T01:28:07.446Z,87.90
2018-12-25T01:30:37.049Z,88.10
2018-12-25T01:33:07.005Z,88.20
2018-12-25T01:35:36.608Z,88.20
2018-12-25T01:38:06.235Z,87.70
2018-12-25T01:40:36.017Z,87.50
2018-12-25T01:43:06.204Z,87.50
2018-12-25T01:45:35.849Z,87.00
2018-12-25T01:48:05.472Z,87.40
2018-12-25T01:50:35.595Z,87.10
2018-12-25T01:53:05.226Z,86.70
2018-12-25T01:55:34.854Z,86.70
2018-12-25T01:58:04.566Z,86.70
2018-12-25T02:00:34.397Z,86.50
2018-12-25T02:03:04.345Z,87.30
2018-12-25T02:05:33.966Z,86.70
2018-12-25T02:08:03.824Z,86.50
2018-12-25T02:10:33.724Z,86.50
2018-12-25T02:13:03.337Z,86.50
2018-12-25T02:15:32.952Z,86.40
2018-12-25T02:18:02.644Z,86.50
2018-12-25T02:20:32.253Z,86.50
2018-12-25T02:23:02.169Z,86.30
2018-12-25T02:25:31.820Z,86.40
2018-12-25T02:28:02.335Z,86.40
2018-12-25T02:30:32.247Z,86.10
2018-12-25T02:33:01.964Z,86.30
2018-12-25T02:35:32.386Z,86.10
2018-12-25T02:38:02.300Z,86.20
2018-12-25T02:40:31.926Z,86.10
2018-12-25T02:43:01.770Z,86.10
2018-12-25T02:45:31.389Z,85.90
2018-12-25T02:48:01.252Z,86.20
2018-12-25T02:50:31.993Z,85.80
2018-12-25T02:53:01.616Z,85.80
2018-12-25T02:55:31.233Z,86.80
2018-12-25T02:58:00.846Z,86.00
2018-12-25T03:00:30.466Z,87.00
2018-12-25T03:03:00.081Z,86.00
2018-12-25T03:05:30.014Z,86.10
2018-12-25T03:07:59.674Z,86.30
2018-12-25T03:10:29.292Z,86.20
2018-12-25T03:12:58.902Z,86.50
2018-12-25T03:15:28.525Z,86.50
2018-12-25T03:17:58.717Z,86.70
2018-12-25T03:20:28.334Z,86.80
2018-12-25T03:22:58.024Z,86.90
2018-12-25T03:25:28.062Z,86.20
2018-12-25T03:27:58.067Z,87.10
2018-12-25T03:30:28.101Z,87.20
2018-12-25T03:32:58.146Z,87.00
2018-12-25T03:35:28.130Z,87.00
2018-12-25T03:37:58.176Z,87.20
2018-12-25T03:40:28.176Z,86.80
2018-12-25T03:42:58.185Z,86.90
2018-12-25T03:45:28.149Z,87.10
2018-12-25T03:47:58.265Z,87.00
2018-12-25T03:50:28.998Z,87.00
2018-12-25T03:52:58.626Z,87.00
2018-12-25T03:55:28.263Z,87.10
2018-12-25T03:57:58.302Z,87.10
2018-12-25T04:00:28.238Z,87.30
2018-12-25T04:02:58.346Z,87.40
2018-12-25T04:05:28.354Z,87.50
2018-12-25T04:07:58.626Z,87.50
2018-12-25T04:10:28.524Z,87.50
2018-12-25T04:12:58.404Z,87.50
2018-12-25T04:15:28.416Z,87.50
2018-12-25T04:17:58.742Z,87.40
2018-12-25T04:20:28.454Z,87.40
2018-12-25T04:22:58.484Z,87.40
2018-12-25T04:25:28.402Z,87.80
2018-12-25T04:27:58.421Z,87.30
2018-12-25T04:30:29.052Z,87.80
2018-12-25T04:32:58.915Z,87.10
2018-12-25T04:35:28.564Z,87.00
2018-12-25T04:37:58.491Z,86.90
2018-12-25T04:40:28.496Z,86.80
2018-12-25T04:42:58.844Z,86.60
2018-12-25T04:45:28.539Z,86.80
2018-12-25T04:47:58.563Z,86.70
2018-12-25T04:50:29.804Z,86.50
2018-12-25T04:52:59.498Z,86.20
2018-12-25T04:55:29.109Z,86.40
2018-12-25T04:57:59.004Z,86.40
2018-12-25T05:00:28.894Z,86.40
2018-12-25T05:02:58.694Z,86.40
2018-12-25T05:05:28.931Z,87.00
2018-12-25T05:07:59.010Z,86.80
2018-12-25T05:10:28.829Z,86.90
2018-12-25T05:12:58.866Z,86.90
2018-12-25T05:15:29.181Z,86.80
2018-12-25T05:17:59.507Z,86.70
2018-12-25T05:20:37.670Z,86.60
2018-12-25T05:23:01.136Z,86.70
2018-12-25T05:25:30.814Z,86.90
2018-12-25T05:28:00.804Z,86.80
2018-12-25T05:30:30.409Z,86.90
2018-12-25T05:33:00.201Z,86.90
2018-12-25T05:35:30.513Z,86.90
2018-12-25T05:38:00.416Z,86.90
2018-12-25T05:40:30.029Z,86.90
2018-12-25T05:43:00.125Z,86.90
2018-12-25T05:45:29.741Z,86.90
2018-12-25T05:47:59.670Z,86.70
2018-12-25T05:50:30.034Z,86.40
2018-12-25T05:52:59.678Z,86.50
2018-12-25T05:55:29.283Z,86.50
2018-12-25T05:57:59.252Z,86.30
2018-12-25T06:00:29.094Z,86.40
2018-12-25T06:02:59.533Z,86.40
2018-12-25T06:05:29.397Z,86.40
2018-12-25T06:07:59.084Z,86.50
2018-12-25T06:10:29.098Z,86.40
2018-12-25T06:12:59.329Z,86.40
2018-12-25T06:15:29.146Z,86.40
2018-12-25T06:17:59.138Z,86.30
2018-12-25T06:20:29.404Z,86.20
2018-12-25T06:22:59.665Z,86.40
2018-12-25T06:25:29.322Z,86.20
2018-12-25T06:27:59.200Z,86.00
2018-12-25T06:30:29.484Z,86.40
2018-12-25T06:32:59.316Z,86.30
2018-12-25T06:35:29.333Z,86.30
2018-12-25T06:37:59.289Z,86.20
2018-12-25T06:40:29.385Z,86.20
2018-12-25T06:42:59.403Z,86.20
2018-12-25T06:45:29.420Z,86.30
2018-12-25T06:47:59.323Z,85.90
2018-12-25T06:50:29.583Z,86.00
2018-12-25T06:52:59.392Z,86.80
2018-12-25T06:55:29.413Z,86.20
2018-12-25T06:57:59.414Z,86.50
2018-12-25T07:00:29.432Z,86.40
2018-12-25T07:02:59.457Z,86.60
2018-12-25T07:05:29.781Z,86.90
2018-12-25T07:07:59.484Z,86.80
2018-12-25T07:10:29.504Z,87.20
2018-12-25T07:12:59.809Z,87.40
2018-12-25T07:15:33.250Z,87.70
2018-12-25T07:18:01.171Z,87.30
2018-12-25T07:20:30.861Z,87.30
2018-12-25T07:23:00.746Z,87.30
2018-12-25T07:25:30.376Z,87.40
2018-12-25T07:27:59.991Z,87.40
2018-12-25T07:30:29.757Z,87.40
2018-12-25T07:32:59.804Z,87.80
2018-12-25T07:35:29.592Z,88.80
2018-12-25T07:38:00.582Z,88.20
2018-12-25T07:40:30.213Z,88.20
2018-12-25T07:43:00.156Z,88.20
2018-12-25T07:45:30.225Z,88.40
2018-12-25T07:48:00.236Z,88.30
2018-12-25T07:50:30.820Z,88.20
2018-12-25T07:53:01.509Z,88.20
2018-12-25T07:55:31.501Z,88.10
2018-12-25T07:58:01.126Z,88.00
2018-12-25T08:00:31.845Z,88.20
2018-12-25T08:03:01.720Z,88.60
2018-12-25T08:05:31.335Z,88.90
2018-12-25T08:08:01.180Z,88.70
2018-12-25T08:10:31.073Z,88.70
2018-12-25T08:13:00.678Z,88.40
2018-12-25T08:15:30.282Z,88.00
2018-12-25T08:17:59.893Z,88.00
2018-12-25T08:20:29.925Z,87.80
2018-12-25T08:23:02.741Z,87.80
2018-12-25T08:25:31.527Z,87.60
2018-12-25T08:28:01.150Z,87.30
2018-12-25T08:30:30.770Z,87.50
2018-12-25T08:33:00.637Z,87.50
2018-12-25T08:35:30.242Z,87.50
2018-12-25T08:38:00.744Z,87.50
2018-12-25T08:40:30.649Z,87.10
2018-12-25T08:43:00.278Z,86.80
2018-12-25T08:45:30.130Z,86.70
2018-12-25T08:48:00.024Z,86.60
2018-12-25T08:50:30.759Z,86.50
2018-12-25T08:53:00.454Z,86.60
2018-12-25T08:55:30.465Z,85.30
2018-12-25T08:58:00.118Z,85.40
2018-12-25T09:00:30.412Z,85.20
2018-12-25T09:03:00.148Z,85.20
2018-12-25T09:05:30.140Z,85.00
2018-12-25T09:08:00.466Z,84.40
2018-12-25T09:10:30.485Z,84.20
2018-12-25T09:13:00.466Z,84.20
2018-12-25T09:15:30.208Z,84.00
2018-12-25T09:18:00.821Z,83.90
2018-12-25T09:20:30.441Z,84.40
2018-12-25T09:23:00.280Z,83.50
2018-12-25T09:25:30.306Z,83.00
2018-12-25T09:28:00.620Z,83.40
2018-12-25T09:30:30.334Z,83.60
2018-12-25T09:33:00.357Z,83.00
2018-12-25T09:35:30.633Z,83.00
2018-12-25T09:38:00.349Z,82.60
2018-12-25T09:40:30.405Z,83.10
2018-12-25T09:43:00.749Z,83.20
2018-12-25T09:45:30.450Z,82.80
2018-12-25T09:48:00.786Z,82.00
2018-12-25T09:50:31.315Z,82.50
2018-12-25T09:53:00.946Z,82.60
2018-12-25T09:55:30.548Z,82.30
2018-12-25T09:58:00.900Z,82.60
2018-12-25T10:00:30.561Z,82.60
2018-12-25T10:03:00.594Z,82.80
2018-12-25T10:05:30.589Z,82.40
2018-12-25T10:08:00.817Z,82.20
2018-12-25T10:10:31.016Z,82.30
2018-12-25T10:13:01.173Z,82.60
2018-12-25T10:15:30.780Z,82.00
2018-12-25T10:18:01.193Z,82.70
2018-12-25T10:20:30.809Z,82.20
2018-12-25T10:23:01.220Z,82.50
2018-12-25T10:25:30.859Z,83.00
2018-12-25T10:28:01.160Z,83.00
2018-12-25T10:30:30.890Z,83.60
2018-12-25T10:33:01.267Z,83.30
2018-12-25T10:35:31.033Z,82.80
2018-12-25T10:38:01.169Z,82.90
2018-12-25T10:40:31.073Z,83.50
2018-12-25T10:43:01.454Z,83.10
2018-12-25T10:45:31.142Z,82.70
2018-12-25T10:48:01.195Z,82.80
2018-12-25T10:50:31.463Z,82.40
2018-12-25T10:53:01.468Z,81.50
2018-12-25T10:55:31.769Z,82.10
2018-12-25T10:58:01.912Z,82.10
2018-12-25T11:00:40.317Z,81.90
2018-12-25T11:03:09.937Z,81.10
2018-12-25T11:05:39.557Z,81.50
2018-12-25T11:08:09.174Z,81.40
2018-12-25T11:10:39.125Z,80.70
2018-12-25T11:13:08.741Z,80.00
2018-12-25T11:15:38.634Z,79.40
2018-12-25T11:18:08.288Z,79.00
2018-12-25T11:20:37.909Z,79.30
2018-12-25T11:23:07.518Z,78.50
2018-12-25T11:25:37.292Z,78.70
2018-12-25T11:28:06.914Z,78.70
2018-12-25T11:30:36.769Z,76.20
2018-12-25T11:33:06.448Z,76.90
2018-12-25T11:35:36.084Z,77.10
2018-12-25T11:38:05.689Z,76.70
2018-12-25T11:40:35.901Z,77.10
2018-12-25T11:43:05.790Z,77.30
2018-12-25T11:45:36.829Z,77.40
2018-12-25T11:48:06.674Z,77.00
2018-12-25T11:50:36.604Z,77.10
2018-12-25T11:53:06.248Z,77.20
2018-12-25T11:55:35.958Z,77.30
2018-12-25T11:58:05.681Z,76.20
2018-12-25T12:00:35.804Z,77.10
2018-12-25T12:03:05.568Z,77.30
2018-12-25T12:05:35.274Z,77.10
2018-12-25T12:08:05.918Z,77.00
2018-12-25T12:10:35.669Z,76.60
2018-12-25T12:13:05.367Z,76.90
2018-12-25T12:15:35.047Z,78.10
2018-12-25T12:18:04.695Z,77.30
2018-12-25T12:20:34.385Z,76.60
2018-12-25T12:23:04.121Z,76.50
2018-12-25T12:25:33.786Z,77.00
2018-12-25T12:28:03.754Z,76.80
2018-12-25T12:30:33.403Z,76.00
2018-12-25T12:33:03.217Z,76.40
2018-12-25T12:35:32.901Z,76.10
2018-12-25T12:38:02.922Z,76.00
2018-12-25T12:40:33.560Z,75.20
2018-12-25T12:43:03.325Z,75.10
2018-12-25T12:45:33.014Z,75.20
2018-12-25T12:48:02.830Z,75.50
2018-12-25T12:50:32.852Z,74.80
2018-12-25T12:53:03.002Z,75.50
2018-12-25T12:55:32.809Z,74.90
2018-12-25T12:58:02.743Z,74.20
2018-12-25T13:00:32.489Z,73.40
2018-12-25T13:03:02.352Z,74.40
2018-12-25T13:05:32.275Z,74.30
2018-12-25T13:08:02.596Z,73.90
2018-12-25T13:10:32.641Z,74.20
2018-12-25T13:13:02.520Z,73.90
2018-12-25T13:15:32.573Z,74.10
2018-12-25T13:18:02.378Z,74.00
2018-12-25T13:20:32.357Z,74.80
2018-12-25T13:23:02.377Z,75.00
2018-12-25T13:25:32.328Z,75.50
2018-12-25T13:28:02.507Z,75.50
2018-12-25T13:30:32.657Z,75.40
2018-12-25T13:33:02.590Z,75.20
2018-12-25T13:35:32.390Z,75.60
2018-12-25T13:38:02.432Z,75.10
2018-12-25T13:40:32.408Z,75.10
2018-12-25T13:43:02.557Z,74.30
2018-12-25T13:45:32.682Z,74.70
2018-12-25T13:48:02.597Z,74.40
2018-12-25T13:50:32.819Z,74.30
2018-12-25T13:53:03.223Z,73.70
2018-12-25T13:55:33.670Z,74.20
2018-12-25T13:58:03.665Z,73.60
2018-12-25T14:00:33.324Z,73.60
2018-12-25T14:03:03.164Z,74.40
2018-12-25T14:05:32.818Z,74.30
2018-12-25T14:08:03.087Z,74.30
2018-12-25T14:10:32.764Z,74.10
2018-12-25T14:13:03.042Z,73.90
2018-12-25T14:15:32.685Z,74.60
2018-12-25T14:18:02.624Z,74.80
2018-12-25T14:20:32.813Z,73.80
2018-12-25T14:23:11.052Z,73.80
2018-12-25T14:25:34.084Z,74.30
2018-12-25T14:28:03.726Z,73.70
2018-12-25T14:30:33.394Z,74.20
2018-12-25T14:33:03.230Z,74.50
2018-12-25T14:35:32.908Z,74.10
2018-12-25T14:38:02.672Z,74.50
2018-12-25T14:40:32.647Z,75.80
2018-12-25T14:43:02.777Z,75.40
2018-12-25T14:45:32.716Z,75.50
2018-12-25T14:48:02.778Z,76.00
2018-12-25T14:50:33.341Z,76.20
2018-12-25T14:53:03.543Z,76.40
2018-12-25T14:55:33.183Z,75.90
2018-12-25T14:58:02.907Z,75.50
2018-12-25T15:00:32.896Z,75.80
2018-12-25T15:03:03.238Z,75.80
2018-12-25T15:05:32.952Z,76.30
2018-12-25T15:08:03.056Z,76.40
2018-12-25T15:10:33.271Z,75.50
2018-12-25T15:13:03.579Z,75.70
2018-12-25T15:15:33.246Z,75.60
2018-12-25T15:18:03.889Z,75.90
2018-12-25T15:20:33.533Z,75.40
2018-12-25T15:23:04.113Z,75.50
2018-12-25T15:25:33.802Z,74.50
2018-12-25T15:28:03.585Z,75.90
2018-12-25T15:30:33.210Z,75.40
2018-12-25T15:33:03.625Z,75.60
2018-12-25T15:35:33.498Z,75.70
2018-12-25T15:38:03.723Z,76.60
2018-12-25T15:40:33.677Z,76.40
2018-12-25T15:43:04.288Z,76.80
2018-12-25T15:45:34.506Z,76.60
2018-12-25T15:48:04.488Z,76.00
2018-12-25T15:50:34.840Z,76.20
2018-12-25T15:53:04.475Z,76.00
2018-12-25T15:55:34.142Z,76.40
2018-12-25T15:58:04.013Z,76.80
2018-12-25T16:00:33.716Z,76.60
2018-12-25T16:03:03.748Z,77.00
2018-12-25T16:05:33.369Z,76.90
2018-12-25T16:08:03.765Z,76.60
2018-12-25T16:10:33.422Z,77.10
2018-12-25T16:13:03.689Z,76.80
2018-12-25T16:15:33.333Z,76.80
2018-12-25T16:18:03.820Z,76.40
2018-12-25T16:20:33.775Z,76.00
2018-12-25T16:23:03.994Z,76.70
2018-12-25T16:25:33.617Z,76.40
2018-12-25T16:28:03.618Z,76.70
2018-12-25T16:30:33.515Z,76.70
2018-12-25T16:33:04.009Z,77.10
2018-12-25T16:35:33.897Z,76.60
2018-12-25T16:38:04.105Z,76.50
2018-12-25T16:40:34.103Z,76.40
2018-12-25T16:43:04.240Z,76.30
2018-12-25T16:45:34.170Z,76.50
2018-12-25T16:48:03.791Z,76.40
2018-12-25T16:50:33.613Z,76.60
2018-12-25T16:53:03.901Z,76.70
2018-12-25T16:55:33.811Z,76.90
2018-12-25T16:58:03.686Z,76.90
2018-12-25T17:00:33.667Z,77.40
2018-12-25T17:03:03.681Z,77.70
2018-12-25T17:05:33.592Z,78.90
2018-12-25T17:08:03.694Z,78.30
2018-12-25T17:10:33.672Z,79.20
2018-12-25T17:13:03.652Z,78.70
2018-12-25T17:15:33.742Z,79.10
2018-12-25T17:18:03.741Z,79.30
2018-12-25T17:20:33.824Z,79.60
2018-12-25T17:23:03.733Z,79.90
2018-12-25T17:25:33.761Z,80.30
2018-12-25T17:28:04.087Z,80.70
2018-12-25T17:30:33.969Z,80.40
2018-12-25T17:33:03.686Z,80.50
2018-12-25T17:35:33.746Z,80.90
2018-12-25T17:38:04.037Z,81.40
2018-12-25T17:40:37.199Z,81.80
2018-12-25T17:43:06.823Z,82.50
2018-12-25T17:45:36.436Z,82.60
2018-12-25T17:48:06.353Z,82.80
2018-12-25T17:50:35.989Z,83.00
2018-12-25T17:53:06.234Z,82.70
2018-12-25T17:55:36.061Z,83.20
2018-12-25T17:58:06.746Z,83.40
2018-12-25T18:00:36.393Z,83.20
2018-12-25T18:03:06.014Z,83.40
2018-12-25T18:05:35.792Z,83.00
2018-12-25T18:08:05.602Z,83.10
2018-12-25T18:10:35.264Z,83.00
2018-12-25T18:13:04.884Z,83.20
2018-12-25T18:15:34.516Z,83.30
2018-12-25T18:18:04.138Z,83.40
2018-12-25T18:20:34.624Z,83.50
2018-12-25T18:23:04.310Z,84.10
2018-12-25T18:25:34.100Z,83.40
2018-12-25T18:28:04.202Z,83.20
2018-12-25T18:30:34.522Z,83.00
2018-12-25T18:33:04.521Z,83.10
2018-12-25T18:35:35.123Z,83.10
2018-12-25T18:38:04.736Z,83.00
2018-12-25T18:40:34.701Z,83.30
2018-12-25T18:43:04.376Z,83.30
2018-12-25T18:45:34.280Z,83.20
2018-12-25T18:48:04.539Z,83.40
2018-12-25T18:50:35.522Z,83.40
2018-12-25T18:53:05.150Z,83.40
2018-12-25T18:55:34.789Z,83.20
2018-12-25T18:58:04.404Z,82.30
2018-12-25T19:00:34.409Z,82.80
2018-12-25T19:03:04.614Z,82.90
2018-12-25T19:05:34.381Z,83.20
2018-12-25T19:08:04.697Z,84.10
2018-12-25T19:10:34.450Z,83.20
2018-12-25T19:13:04.441Z,83.40
2018-12-25T19:15:35.476Z,83.60
2018-12-25T19:18:07.052Z,83.60
2018-12-25T19:20:36.766Z,83.60
2018-12-25T19:23:06.634Z,83.40
2018-12-25T19:25:36.495Z,83.40
2018-12-25T19:28:07.710Z,83.10
2018-12-25T19:30:39.007Z,83.10
2018-12-25T19:33:08.620Z,83.30
2018-12-25T19:35:38.580Z,83.20
2018-12-25T19:38:08.498Z,82.90
2018-12-25T19:40:38.159Z,83.50
2018-12-25T19:43:08.075Z,82.40
2018-12-25T19:45:38.034Z,82.50
2018-12-25T19:48:07.983Z,82.60
2018-12-25T19:50:38.056Z,82.30
2018-12-25T19:53:08.310Z,82.30
2018-12-25T19:55:38.009Z,82.60
2018-12-25T19:58:07.717Z,82.70
2018-12-25T20:00:37.368Z,82.40
2018-12-25T20:03:23.045Z,82.40
2018-12-25T20:06:29.723Z,82.30
2018-12-25T20:09:36.081Z,82.20
2018-12-25T20:13:02.420Z,82.80
2018-12-25T20:16:02.456Z,82.00
2018-12-25T20:19:21.071Z,82.30
2018-12-25T20:22:47.417Z,82.00
2018-12-25T20:25:49.282Z,82.20
2018-12-25T20:29:01.528Z,82.40
2018-12-25T20:32:02.449Z,82.20
2018-12-25T20:35:02.036Z,82.10
2018-12-25T20:38:24.201Z,82.90
2018-12-25T20:41:24.143Z,81.90
2018-12-25T20:44:46.662Z,81.80
2018-12-25T20:47:46.601Z,81.50
2018-12-25T20:51:12.897Z,81.50
2018-12-25T20:54:17.452Z,81.10
2018-12-25T20:57:28.816Z,81.20
2018-12-25T21:00:43.141Z,80.90
2018-12-25T21:03:46.371Z,80.80
2018-12-25T21:06:57.039Z,80.70
2018-12-25T21:10:07.341Z,80.40
2018-12-25T21:13:13.654Z,80.70
2018-12-25T21:16:05.212Z,80.80
2018-12-25T21:19:48.011Z,80.70
2018-12-25T21:22:53.641Z,80.60
2018-12-25T21:25:59.553Z,80.60
2018-12-25T21:28:33.258Z,80.10
2018-12-25T21:31:04.333Z,80.50
2018-12-25T21:33:34.089Z,81.30
2018-12-25T21:36:03.878Z,80.40
2018-12-25T21:38:33.513Z,80.10
2018-12-25T21:41:03.872Z,80.00
2018-12-25T21:43:33.883Z,80.20
2018-12-25T21:46:03.576Z,80.10
2018-12-25T21:48:34.321Z,80.00
2018-12-25T21:51:04.010Z,80.30
2018-12-25T21:53:34.377Z,80.30
2018-12-25T21:56:04.283Z,80.20
2018-12-25T21:58:35.108Z,80.60
2018-12-25T22:01:05.044Z,80.50
2018-12-25T22:03:35.297Z,80.50
2018-12-25T22:06:05.162Z,80.40
2018-12-25T22:08:34.944Z,80.20
2018-12-25T22:11:04.834Z,80.40
2018-12-25T22:13:34.723Z,80.80
2018-12-25T22:16:04.368Z,80.80
2018-12-25T22:18:34.046Z,80.80
2018-12-25T22:21:03.675Z,81.00
2018-12-25T22:23:33.593Z,80.80
2018-12-25T22:26:03.356Z,81.00
2018-12-25T22:28:33.141Z,81.00
2018-12-25T22:31:02.933Z,81.10
2018-12-25T22:33:32.813Z,81.30
2018-12-25T22:36:02.946Z,81.60
2018-12-25T22:38:32.564Z,81.70
2018-12-25T22:41:02.170Z,81.90
2018-12-25T22:43:32.094Z,82.10
2018-12-25T22:46:01.714Z,83.20
2018-12-25T22:48:31.337Z,82.50
2018-12-25T22:51:00.953Z,82.40
2018-12-25T22:53:30.584Z,82.50
2018-12-25T22:56:00.217Z,82.60
2018-12-25T22:58:29.845Z,82.50
2018-12-25T23:00:59.538Z,82.60
2018-12-25T23:03:29.161Z,83.00
2018-12-25T23:05:58.773Z,83.40
2018-12-25T23:08:28.631Z,83.60
2018-12-25T23:10:58.504Z,83.60
2018-12-25T23:13:28.149Z,83.70
2018-12-25T23:15:57.773Z,84.20
2018-12-25T23:18:27.393Z,83.80
2018-12-25T23:20:57.005Z,83.90
2018-12-25T23:23:26.620Z,84.10
2018-12-25T23:25:56.574Z,84.70
2018-12-25T23:28:26.549Z,84.90
2018-12-25T23:30:56.166Z,84.60
2018-12-25T23:33:26.113Z,84.50
2018-12-25T23:35:55.988Z,84.90
2018-12-25T23:38:25.613Z,84.90
2018-12-25T23:40:55.569Z,85.30
2018-12-25T23:43:25.255Z,85.40
2018-12-25T23:45:54.875Z,86.10
2018-12-25T23:48:24.494Z,85.00
2018-12-25T23:50:54.101Z,85.20
2018-12-25T23:53:23.722Z,85.30
2018-12-25T23:55:53.346Z,86.00
2018-12-25T23:58:22.969Z,86.40
